createdAt,value
2018-08-20T00:01:37.782Z,10.33
2018-08-20T00:04:10.124Z,9.07
2018-08-20T00:06:51.344Z,7.80
2018-08-20T00:09:22.063Z,8.30
2018-08-20T00:11:51.006Z,8.93
2018-08-20T00:14:21.823Z,9.97
2018-08-20T00:16:50.678Z,8.50
2018-08-20T00:19:19.586Z,8.93
2018-08-20T00:21:48.437Z,8.13
2018-08-20T00:24:17.302Z,8.03
2018-08-20T00:26:46.127Z,7.93
2018-08-20T00:29:14.932Z,8.47
2018-08-20T00:31:43.723Z,8.80
2018-08-20T00:34:12.748Z,8.97
2018-08-20T00:36:41.793Z,8.53
2018-08-20T00:39:11.612Z,8.40
2018-08-20T00:41:40.457Z,8.17
2018-08-20T00:44:16.203Z,9.20
2018-08-20T00:46:45.926Z,8.47
2018-08-20T00:49:16.117Z,8.97
2018-08-20T00:51:45.420Z,8.80
2018-08-20T00:54:14.417Z,9.20
2018-08-20T00:56:43.346Z,8.37
2018-08-20T00:59:12.242Z,9.53
2018-08-20T01:01:41.292Z,9.37
2018-08-20T01:04:10.076Z,10.17
2018-08-20T01:06:38.921Z,11.80
2018-08-20T01:09:08.364Z,9.10
2018-08-20T01:11:37.434Z,8.80
2018-08-20T01:14:06.303Z,8.63
2018-08-20T01:16:35.200Z,8.70
2018-08-20T01:19:04.046Z,10.00
2018-08-20T01:21:33.015Z,9.80
2018-08-20T01:24:01.868Z,9.30
2018-08-20T01:26:30.669Z,9.40
2018-08-20T01:28:59.466Z,9.00
2018-08-20T01:31:28.474Z,9.63
2018-08-20T01:33:57.272Z,9.70
2018-08-20T01:36:26.133Z,8.60
2018-08-20T01:38:54.945Z,8.93
2018-08-20T01:41:24.688Z,9.87
2018-08-20T01:43:53.465Z,9.50
2018-08-20T01:46:22.303Z,8.63
2018-08-20T01:48:51.326Z,9.00
2018-08-20T01:51:20.343Z,12.03
2018-08-20T01:53:49.234Z,9.87
2018-08-20T01:56:18.124Z,8.97
2018-08-20T01:58:46.922Z,9.80
2018-08-20T02:01:15.725Z,9.70
2018-08-20T02:03:44.591Z,11.33
2018-08-20T02:06:13.443Z,9.43
2018-08-20T02:08:42.248Z,9.70
2018-08-20T02:11:11.332Z,13.93
2018-08-20T02:13:40.384Z,10.33
2018-08-20T02:16:10.195Z,11.03
2018-08-20T02:18:39.146Z,10.70
2018-08-20T02:21:08.058Z,11.47
2018-08-20T02:23:36.877Z,10.80
2018-08-20T02:26:05.773Z,10.50
2018-08-20T02:28:34.664Z,10.97
2018-08-20T02:31:03.437Z,12.03
2018-08-20T02:33:32.280Z,11.30
2018-08-20T02:36:01.013Z,12.93
2018-08-20T02:38:30.538Z,13.13
2018-08-20T02:40:59.505Z,11.20
2018-08-20T02:43:28.421Z,13.27
2018-08-20T02:45:57.256Z,11.63
2018-08-20T02:48:26.295Z,13.47
2018-08-20T02:50:55.290Z,12.83
2018-08-20T02:53:24.151Z,13.73
2018-08-20T02:55:52.964Z,12.30
2018-08-20T02:58:21.774Z,16.60
2018-08-20T03:00:50.704Z,15.93
2018-08-20T03:03:19.540Z,15.43
2018-08-20T03:05:48.412Z,18.73
2018-08-20T03:08:17.382Z,13.60
2018-08-20T03:10:46.144Z,13.30
2018-08-20T03:13:14.985Z,17.77
2018-08-20T03:15:43.788Z,13.67
2018-08-20T03:18:12.628Z,14.87
2018-08-20T03:20:41.553Z,15.03
2018-08-20T03:23:10.403Z,16.30
2018-08-20T03:25:39.186Z,19.33
2018-08-20T03:28:08.186Z,18.93
2018-08-20T03:30:37.115Z,17.67
2018-08-20T03:33:06.070Z,17.23
2018-08-20T03:35:35.103Z,18.20
2018-08-20T03:38:03.956Z,16.07
2018-08-20T03:40:32.832Z,17.97
2018-08-20T03:43:01.663Z,15.13
2018-08-20T03:45:30.415Z,16.63
2018-08-20T03:47:59.278Z,15.30
2018-08-20T03:50:28.089Z,18.43
2018-08-20T03:52:56.892Z,17.67
2018-08-20T03:55:28.657Z,17.20
2018-08-20T03:57:57.554Z,16.57
2018-08-20T04:00:26.369Z,16.07
2018-08-20T04:02:55.392Z,18.53
2018-08-20T04:05:27.165Z,18.00
2018-08-20T04:07:56.303Z,15.67
2018-08-20T04:10:25.275Z,14.20
2018-08-20T04:12:54.050Z,16.47
2018-08-20T04:15:22.854Z,17.03
2018-08-20T04:17:51.734Z,16.37
2018-08-20T04:20:21.557Z,14.43
2018-08-20T04:22:50.431Z,14.23
2018-08-20T04:25:19.225Z,15.07
2018-08-20T04:27:48.053Z,14.50
2018-08-20T04:30:16.909Z,18.73
2018-08-20T04:32:45.694Z,13.63
2018-08-20T04:35:14.525Z,15.87
2018-08-20T04:37:43.373Z,14.17
2018-08-20T04:40:12.243Z,13.00
2018-08-20T04:42:41.010Z,12.17
2018-08-20T04:45:10.238Z,14.40
2018-08-20T04:47:39.357Z,15.90
2018-08-20T04:50:10.424Z,17.83
2018-08-20T04:52:39.886Z,14.20
2018-08-20T04:55:08.968Z,11.93
2018-08-20T04:57:38.157Z,13.93
2018-08-20T05:00:08.916Z,14.03
2018-08-20T05:02:37.759Z,11.90
2018-08-20T05:05:06.653Z,14.37
2018-08-20T05:07:35.878Z,12.33
2018-08-20T05:10:05.053Z,9.57
2018-08-20T05:12:33.961Z,9.77
2018-08-20T05:15:02.765Z,9.57
2018-08-20T05:17:31.599Z,11.23
2018-08-20T05:20:00.515Z,9.73
2018-08-20T05:22:29.468Z,11.87
2018-08-20T05:24:58.374Z,10.87
2018-08-20T05:27:27.277Z,11.23
2018-08-20T05:29:56.157Z,12.30
2018-08-20T05:32:24.974Z,15.83
2018-08-20T05:34:54.159Z,11.23
2018-08-20T05:37:22.987Z,9.67
2018-08-20T05:39:51.973Z,9.03
2018-08-20T05:42:21.046Z,10.50
2018-08-20T05:44:49.949Z,8.53
2018-08-20T05:47:18.774Z,8.97
2018-08-20T05:49:47.803Z,9.13
2018-08-20T05:52:16.645Z,8.43
2018-08-20T05:54:45.506Z,9.97
2018-08-20T05:57:14.406Z,9.13
2018-08-20T05:59:43.309Z,8.90
2018-08-20T06:02:12.209Z,8.47
2018-08-20T06:04:41.034Z,8.80
2018-08-20T06:07:09.881Z,9.47
2018-08-20T06:09:38.873Z,10.97
2018-08-20T06:12:07.933Z,8.27
2018-08-20T06:14:36.715Z,9.77
2018-08-20T06:17:05.978Z,8.40
2018-08-20T06:19:35.136Z,7.63
2018-08-20T06:22:03.945Z,6.83
2018-08-20T06:24:33.089Z,11.67
2018-08-20T06:27:01.958Z,7.73
2018-08-20T06:29:31.119Z,7.87
2018-08-20T06:32:00.006Z,7.07
2018-08-20T06:34:28.854Z,6.23
2018-08-20T06:36:57.867Z,7.20
2018-08-20T06:39:26.781Z,6.80
2018-08-20T06:41:56.427Z,6.33
2018-08-20T06:44:25.407Z,7.77
2018-08-20T06:46:54.346Z,5.40
2018-08-20T06:49:23.319Z,5.27
2018-08-20T06:51:52.185Z,5.87
2018-08-20T06:54:21.048Z,4.97
2018-08-20T06:56:50.153Z,5.60
2018-08-20T06:59:19.015Z,6.57
2018-08-20T07:01:48.038Z,5.83
2018-08-20T07:04:17.048Z,7.20
2018-08-20T07:06:46.011Z,5.40
2018-08-20T07:09:14.957Z,7.33
2018-08-20T07:11:44.029Z,5.83
2018-08-20T07:14:12.980Z,6.03
2018-08-20T07:16:41.740Z,8.43
2018-08-20T07:19:10.744Z,8.77
2018-08-20T07:21:39.524Z,6.07
2018-08-20T07:24:08.714Z,5.97
2018-08-20T07:26:37.515Z,6.17
2018-08-20T07:29:06.273Z,6.67
2018-08-20T07:31:35.352Z,6.07
2018-08-20T07:34:04.181Z,5.63
2018-08-20T07:36:32.918Z,6.03
2018-08-20T07:39:01.651Z,5.67
2018-08-20T07:41:30.472Z,6.20
2018-08-20T07:43:59.268Z,7.20
2018-08-20T07:46:28.130Z,6.80
2018-08-20T07:49:03.643Z,5.80
2018-08-20T07:51:34.940Z,5.67
2018-08-20T07:54:04.129Z,5.80
2018-08-20T07:56:34.387Z,6.67
2018-08-20T07:59:03.488Z,8.03
2018-08-20T08:01:32.458Z,5.70
2018-08-20T08:04:01.545Z,7.00
2018-08-20T08:06:30.692Z,7.50
2018-08-20T08:08:59.851Z,9.07
2018-08-20T08:11:29.110Z,7.07
2018-08-20T08:13:58.127Z,7.83
2018-08-20T08:16:27.063Z,7.33
2018-08-20T08:18:56.039Z,5.90
2018-08-20T08:21:24.998Z,6.47
2018-08-20T08:23:54.012Z,6.40
2018-08-20T08:26:22.931Z,7.20
2018-08-20T08:28:53.694Z,7.87
2018-08-20T08:31:23.018Z,9.23
2018-08-20T08:33:52.090Z,7.00
2018-08-20T08:36:21.007Z,6.43
2018-08-20T08:38:50.628Z,6.90
2018-08-20T08:41:19.830Z,7.17
2018-08-20T08:43:49.494Z,7.73
2018-08-20T08:46:18.452Z,6.00
2018-08-20T08:48:47.396Z,5.63
2018-08-20T08:51:17.404Z,5.53
2018-08-20T08:53:46.278Z,5.83
2018-08-20T08:56:15.282Z,6.10
2018-08-20T08:58:45.196Z,8.97
2018-08-20T09:01:14.171Z,5.27
2018-08-20T09:03:43.241Z,5.77
2018-08-20T09:06:12.150Z,5.27
2018-08-20T09:08:41.068Z,5.93
2018-08-20T09:11:12.429Z,6.57
2018-08-20T09:13:43.974Z,5.40
2018-08-20T09:16:16.256Z,5.83
2018-08-20T09:18:45.500Z,5.03
2018-08-20T09:21:20.917Z,5.53
2018-08-20T09:23:50.074Z,6.27
2018-08-20T09:26:19.237Z,7.53
2018-08-20T09:28:54.851Z,5.37
2018-08-20T09:31:24.189Z,9.43
2018-08-20T09:33:53.108Z,5.23
2018-08-20T09:36:22.431Z,5.50
2018-08-20T09:38:52.119Z,5.70
2018-08-20T09:41:21.086Z,4.73
2018-08-20T09:43:50.164Z,5.07
2018-08-20T09:46:19.341Z,5.30
2018-08-20T09:48:48.174Z,5.63
2018-08-20T09:51:17.046Z,6.00
2018-08-20T09:53:46.436Z,5.83
2018-08-20T09:56:22.390Z,6.07
2018-08-20T09:58:51.293Z,6.10
2018-08-20T10:01:20.196Z,5.50
2018-08-20T10:03:48.974Z,6.47
2018-08-20T10:06:18.080Z,6.33
2018-08-20T10:08:47.114Z,6.23
2018-08-20T10:11:16.443Z,7.87
2018-08-20T10:13:45.631Z,5.93
2018-08-20T10:16:14.757Z,6.47
2018-08-20T10:18:43.538Z,5.20
2018-08-20T10:21:12.448Z,6.03
2018-08-20T10:23:41.206Z,5.30
2018-08-20T10:26:10.274Z,5.40
2018-08-20T10:28:39.030Z,5.60
2018-08-20T10:31:07.851Z,7.10
2018-08-20T10:33:36.638Z,5.50
2018-08-20T10:36:05.787Z,6.90
2018-08-20T10:38:34.788Z,6.10
2018-08-20T10:41:03.640Z,7.00
2018-08-20T10:43:32.556Z,6.00
2018-08-20T10:46:06.692Z,7.37
2018-08-20T10:48:35.451Z,5.53
2018-08-20T10:51:04.306Z,12.23
2018-08-20T10:53:33.038Z,5.80
2018-08-20T10:56:02.064Z,7.60
2018-08-20T10:58:31.032Z,6.63
2018-08-20T11:00:59.781Z,10.23
2018-08-20T11:03:28.567Z,7.80
2018-08-20T11:05:57.359Z,7.23
2018-08-20T11:08:26.431Z,8.60
2018-08-20T11:10:55.335Z,8.90
2018-08-20T11:13:24.366Z,9.23
2018-08-20T11:15:53.156Z,9.17
2018-08-20T11:18:22.152Z,9.17
2018-08-20T11:20:53.222Z,10.00
2018-08-20T11:23:22.218Z,7.47
2018-08-20T11:25:51.378Z,7.70
2018-08-20T11:28:21.245Z,7.77
2018-08-20T11:30:50.196Z,6.70
2018-08-20T11:33:19.142Z,6.43
2018-08-20T11:35:47.905Z,7.27
2018-08-20T11:38:16.740Z,7.40
2018-08-20T11:40:45.568Z,6.27
2018-08-20T11:43:14.497Z,6.30
2018-08-20T11:45:43.276Z,6.00
2018-08-20T11:48:12.516Z,6.30
2018-08-20T11:50:41.656Z,6.70
2018-08-20T11:53:10.646Z,6.90
2018-08-20T11:55:39.490Z,6.87
2018-08-20T11:58:08.347Z,7.50
2018-08-20T12:00:37.278Z,10.30
2018-08-20T12:03:07.181Z,7.30
2018-08-20T12:05:36.082Z,7.67
2018-08-20T12:08:05.013Z,9.23
2018-08-20T12:10:33.871Z,7.77
2018-08-20T12:13:02.750Z,10.63
2018-08-20T12:15:31.536Z,9.00
2018-08-20T12:18:00.522Z,9.53
2018-08-20T12:20:29.274Z,9.70
2018-08-20T12:22:58.036Z,8.90
2018-08-20T12:25:26.802Z,7.33
2018-08-20T12:27:55.605Z,10.73
2018-08-20T12:30:24.331Z,8.83
2018-08-20T12:32:55.212Z,10.17
2018-08-20T12:35:24.417Z,12.13
2018-08-20T12:37:53.332Z,9.93
2018-08-20T12:40:22.342Z,11.00
2018-08-20T12:42:51.161Z,9.93
2018-08-20T12:45:20.009Z,10.17
2018-08-20T12:47:48.917Z,10.97
2018-08-20T12:50:17.713Z,10.93
2018-08-20T12:52:46.658Z,9.63
2018-08-20T12:55:15.537Z,9.63
2018-08-20T12:57:44.284Z,8.33
2018-08-20T13:00:13.125Z,11.00
2018-08-20T13:02:42.036Z,5.60
2018-08-20T13:05:10.862Z,6.57
2018-08-20T13:07:39.627Z,8.73
2018-08-20T13:10:08.668Z,5.27
2018-08-20T13:12:37.478Z,3.40
2018-08-20T13:15:07.252Z,3.10
2018-08-20T13:17:36.143Z,2.75
2018-08-20T13:20:05.331Z,3.77
2018-08-20T13:22:34.142Z,4.50
2018-08-20T13:25:03.001Z,3.17
2018-08-20T13:27:31.974Z,3.70
2018-08-20T13:30:01.065Z,3.13
2018-08-20T13:32:29.966Z,5.30
2018-08-20T13:34:58.832Z,3.60
2018-08-20T13:37:27.682Z,3.90
2018-08-20T13:39:56.597Z,3.90
2018-08-20T13:42:25.413Z,4.33
2018-08-20T13:44:54.653Z,4.30
2018-08-20T13:47:23.440Z,6.07
2018-08-20T13:49:55.250Z,7.00
2018-08-20T13:52:23.886Z,6.33
2018-08-20T13:54:52.617Z,6.87
2018-08-20T13:57:21.482Z,6.87
2018-08-20T13:59:50.461Z,6.40
2018-08-20T14:02:19.225Z,6.23
2018-08-20T14:04:49.853Z,6.97
2018-08-20T14:07:18.644Z,5.77
2018-08-20T14:09:47.513Z,5.60
2018-08-20T14:12:16.283Z,4.80
2018-08-20T14:14:45.051Z,7.07
2018-08-20T14:17:13.965Z,7.80
2018-08-20T14:19:42.975Z,5.83
2018-08-20T14:22:11.754Z,5.78
2018-08-20T14:24:40.728Z,5.58
2018-08-20T14:27:09.479Z,6.05
2018-08-20T14:29:38.626Z,6.37
2018-08-20T14:32:07.650Z,7.17
2018-08-20T14:34:36.458Z,9.40
2018-08-20T14:37:11.847Z,8.38
2018-08-20T14:39:40.749Z,8.85
2018-08-20T14:42:09.813Z,5.90
2018-08-20T14:44:38.595Z,5.75
2018-08-20T14:47:07.401Z,5.78
2018-08-20T14:49:36.325Z,5.30
2018-08-20T14:52:05.091Z,5.37
2018-08-20T14:54:33.858Z,6.33
2018-08-20T14:57:03.300Z,5.50
2018-08-20T14:59:32.401Z,8.37
2018-08-20T15:02:01.499Z,4.83
2018-08-20T15:04:30.167Z,5.20
2018-08-20T15:07:04.174Z,5.40
2018-08-20T15:09:33.004Z,4.85
2018-08-20T15:12:01.783Z,4.40
2018-08-20T15:14:30.578Z,5.08
2018-08-20T15:17:00.254Z,4.97
2018-08-20T15:19:32.884Z,5.03
2018-08-20T15:22:06.017Z,5.17
2018-08-20T15:24:37.393Z,5.50
2018-08-20T15:27:08.284Z,4.27
2018-08-20T15:29:39.464Z,4.92
2018-08-20T15:32:10.931Z,4.87
2018-08-20T15:34:41.963Z,3.87
2018-08-20T15:37:13.926Z,4.85
